Time;durP1;ratioP1;P1;durP2;ratioP2;P2;SDS_P1;SDS_P2;PMS_P1;PMS_P2;Temp;Humidity;BMP_temperature;BMP_pressure;BME280_temperature;BME280_humidity;BME280_pressure;Samples;Min_cycle;Max_cycle;Signal;HPM_P1;HPM_P2
2024/04/11 00:00:33;;;;;;;11.30;6.10;;;;;;;8.15;73.34;101889.80;129569;1280;114774;-61
2024/04/11 00:03:55;;;;;;;11.70;5.90;;;;;;;8.15;73.25;101889.63;129421;1264;114731;-65
2024/04/11 00:06:56;;;;;;;9.20;6.40;;;;;;;8.13;73.19;101890.54;129478;1260;115985;-66
2024/04/11 00:09:59;;;;;;;12.60;6.40;;;;;;;8.10;73.11;101890.23;129630;1257;114777;-67
2024/04/11 00:13:01;;;;;;;9.80;6.00;;;;;;;8.05;73.22;101889.22;129226;1268;114914;-60
2024/04/11 00:16:04;;;;;;;9.50;5.80;;;;;;;8.00;73.20;101889.30;129526;1260;114750;-67
2024/04/11 00:19:06;;;;;;;12.00;6.60;;;;;;;7.94;73.16;101887.42;129581;1260;114840;-63
2024/04/11 00:22:08;;;;;;;9.70;6.50;;;;;;;7.88;73.06;101889.63;129527;1260;114756;-67
2024/04/11 00:25:10;;;;;;;12.40;7.00;;;;;;;7.80;73.10;101885.29;129534;1261;114873;-60
2024/04/11 00:28:12;;;;;;;11.30;6.30;;;;;;;7.72;73.17;101887.86;129630;1273;114895;-60
2024/04/11 00:31:15;;;;;;;10.00;5.50;;;;;;;7.65;73.29;101884.23;129706;1261;115234;-66
2024/04/11 00:34:23;;;;;;;9.90;5.90;;;;;;;7.57;73.33;101887.86;129883;1264;114749;-63
2024/04/11 00:37:25;;;;;;;11.20;6.30;;;;;;;7.50;73.41;101889.02;129727;1261;114713;-61
2024/04/11 00:40:27;;;;;;;9.60;7.10;;;;;;;7.43;73.60;101885.89;129564;1273;114692;-65
2024/04/11 00:43:30;;;;;;;9.70;5.50;;;;;;;7.36;73.81;101878.86;129839;1280;115025;-65
2024/04/11 00:46:31;;;;;;;10.80;6.40;;;;;;;7.28;73.93;101879.11;129894;1257;114749;-65
2024/04/11 00:49:34;;;;;;;12.20;6.70;;;;;;;7.23;74.07;101880.05;129375;1258;115458;-65
2024/04/11 00:52:37;;;;;;;11.20;6.00;;;;;;;7.17;74.01;101885.45;129461;1274;114918;-61
2024/04/11 00:55:41;;;;;;;8.80;5.90;;;;;;;7.11;74.04;101882.48;129511;1280;114846;-62
2024/04/11 00:58:43;;;;;;;10.00;6.30;;;;;;;7.05;74.25;101881.46;129379;1262;114826;-61
2024/04/11 01:01:45;;;;;;;10.20;6.40;;;;;;;6.99;74.53;101878.68;129490;1273;114695;-60
2024/04/11 01:04:47;;;;;;;12.80;6.10;;;;;;;6.93;74.47;101876.26;129699;1268;115383;-60
2024/04/11 01:07:53;;;;;;;10.20;6.40;;;;;;;6.87;74.59;101870.79;129414;1261;114768;-61
2024/04/11 01:10:55;;;;;;;9.00;6.00;;;;;;;6.82;74.76;101873.67;129496;1272;129506;-61
2024/04/11 01:13:59;;;;;;;10.00;6.40;;;;;;;6.76;74.82;101875.52;129464;1258;114853;-60
2024/04/11 01:17:01;;;;;;;10.10;6.60;;;;;;;6.71;74.92;101872.00;129417;1274;115147;-60
2024/04/11 01:20:04;;;;;;;11.10;6.30;;;;;;;6.65;74.91;101878.26;129586;1280;114819;-60
2024/04/11 01:23:07;;;;;;;11.20;6.70;;;;;;;6.59;75.05;101877.06;129432;1263;114862;-60
2024/04/11 01:26:09;;;;;;;10.70;6.50;;;;;;;6.53;75.23;101877.28;129752;1280;114831;-62
2024/04/11 01:29:11;;;;;;;11.30;5.90;;;;;;;6.46;75.37;101875.91;129735;1257;114837;-61
2024/04/11 01:32:13;;;;;;;11.20;6.60;;;;;;;6.40;75.24;101882.34;129558;1280;129029;-63
2024/04/11 01:35:16;;;;;;;7.90;5.70;;;;;;;6.35;75.23;101877.58;129611;1258;114815;-63
2024/04/11 01:38:18;;;;;;;11.50;6.40;;;;;;;6.31;75.54;101879.37;129554;1257;114795;-62
2024/04/11 01:41:20;;;;;;;12.60;7.10;;;;;;;6.25;75.58;101880.84;129215;1267;114900;-60
2024/04/11 01:44:24;;;;;;;9.40;5.90;;;;;;;6.21;75.61;101886.71;129585;1262;114800;-60
2024/04/11 01:47:26;;;;;;;13.40;7.20;;;;;;;6.17;75.68;101887.98;129648;1261;114733;-60
2024/04/11 01:50:30;;;;;;;11.60;6.00;;;;;;;6.12;75.90;101886.05;129467;1267;128351;-61
2024/04/11 01:53:36;;;;;;;10.60;6.60;;;;;;;6.08;76.17;101885.73;129664;1280;114764;-67
2024/04/11 01:56:39;;;;;;;10.50;7.00;;;;;;;6.02;76.30;101889.13;129314;1263;114743;-59
2024/04/11 01:59:41;;;;;;;9.80;6.80;;;;;;;5.99;76.37;101895.32;129883;1280;115284;-60
2024/04/11 02:02:43;;;;;;;10.00;6.30;;;;;;;5.93;76.51;101889.14;129997;1262;114748;-64
2024/04/11 02:05:46;;;;;;;14.90;6.70;;;;;;;5.89;76.71;101891.63;129358;1278;116035;-60
2024/04/11 02:08:49;;;;;;;9.10;6.20;;;;;;;5.85;76.89;101894.31;129422;1260;114844;-60
2024/04/11 02:11:53;;;;;;;14.30;7.40;;;;;;;5.81;76.92;101902.13;129481;1261;207663;-60
2024/04/11 02:14:55;;;;;;;13.20;7.50;;;;;;;5.77;76.90;101906.94;129489;1261;114797;-61
2024/04/11 02:17:58;;;;;;;10.40;6.50;;;;;;;5.73;77.11;101910.65;129412;1257;114903;-61
2024/04/11 02:20:59;;;;;;;12.40;6.90;;;;;;;5.70;77.47;101911.02;129493;1257;116055;-65
2024/04/11 02:24:02;;;;;;;10.30;6.10;;;;;;;5.67;77.31;101911.22;129495;1261;114731;-60
2024/04/11 02:27:04;;;;;;;13.80;8.10;;;;;;;5.63;77.36;101907.86;129610;1262;115347;-59
2024/04/11 02:30:09;;;;;;;17.60;8.10;;;;;;;5.59;77.28;101907.88;129652;1257;114805;-59
2024/04/11 02:33:11;;;;;;;15.00;8.60;;;;;;;5.56;77.54;101905.73;129424;1258;114913;-60
2024/04/11 02:36:13;;;;;;;13.60;7.60;;;;;;;5.53;77.76;101904.70;129581;1273;115413;-65
2024/04/11 02:39:16;;;;;;;20.50;8.80;;;;;;;5.49;77.86;101900.27;129842;1280;114829;-63
2024/04/11 02:42:18;;;;;;;17.20;9.40;;;;;;;5.46;77.96;101899.40;129638;1280;114811;-63
2024/04/11 02:45:21;;;;;;;13.80;8.50;;;;;;;5.42;77.85;101899.05;129940;1260;114866;-62
2024/04/11 02:48:26;;;;;;;12.10;7.00;;;;;;;5.39;77.63;101898.18;129486;1272;114808;-60
2024/04/11 02:51:27;;;;;;;15.40;8.20;;;;;;;5.35;77.74;101895.54;129415;1264;114835;-62
2024/04/11 02:54:29;;;;;;;16.30;7.80;;;;;;;5.31;78.03;101894.65;129659;1260;114789;-60
2024/04/11 02:57:31;;;;;;;15.20;7.80;;;;;;;5.27;78.18;101898.56;129740;1261;114829;-61
2024/04/11 03:00:33;;;;;;;15.90;8.20;;;;;;;5.25;78.14;101903.34;129438;1261;114816;-60
2024/04/11 03:03:37;;;;;;;13.80;8.10;;;;;;;5.22;78.48;101905.82;129465;1261;115304;-60
2024/04/11 03:06:39;;;;;;;15.80;8.30;;;;;;;5.21;78.76;101903.88;129797;1260;114675;-60
2024/04/11 03:09:43;;;;;;;15.80;8.70;;;;;;;5.18;78.75;101906.89;129496;1257;115185;-60
2024/04/11 03:12:45;;;;;;;17.70;8.70;;;;;;;5.16;78.98;101910.96;129646;1260;114780;-62
2024/04/11 03:15:56;;;;;;;15.50;8.40;;;;;;;5.14;79.10;101913.10;129801;1261;114839;-63
2024/04/11 03:18:58;;;;;;;18.80;8.90;;;;;;;5.12;79.18;101917.36;129452;1258;114945;-60
2024/04/11 03:22:00;;;;;;;16.20;9.50;;;;;;;5.08;79.03;101919.29;129405;1260;114874;-60
2024/04/11 03:25:04;;;;;;;19.80;10.70;;;;;;;5.06;79.30;101920.54;129456;1274;115173;-59
2024/04/11 03:28:06;;;;;;;23.30;11.50;;;;;;;5.01;79.24;101922.66;129479;1280;128033;-60
2024/04/11 03:31:10;;;;;;;17.60;10.30;;;;;;;4.98;79.31;101924.44;129508;1260;114929;-61
2024/04/11 03:34:12;;;;;;;18.20;9.90;;;;;;;4.95;79.16;101921.27;129544;1260;114828;-60
2024/04/11 03:37:14;;;;;;;18.10;10.40;;;;;;;4.91;79.42;101916.13;129327;1264;114836;-61
2024/04/11 03:40:16;;;;;;;18.50;9.80;;;;;;;4.86;79.40;101916.13;129611;1280;114885;-61
2024/04/11 03:43:18;;;;;;;20.40;10.20;;;;;;;4.83;79.41;101911.68;129363;1261;114862;-60
2024/04/11 03:46:21;;;;;;;16.80;9.00;;;;;;;4.81;79.72;101917.70;129404;1260;115118;-59
2024/04/11 03:49:23;;;;;;;17.00;9.20;;;;;;;4.78;79.50;101918.23;129494;1260;114743;-59
2024/04/11 03:52:27;;;;;;;16.60;8.50;;;;;;;4.76;79.44;101920.36;129589;1280;115271;-59
2024/04/11 03:55:29;;;;;;;16.30;9.70;;;;;;;4.73;79.60;101917.88;129605;1261;114817;-60
2024/04/11 03:58:31;;;;;;;15.70;8.90;;;;;;;4.70;79.87;101917.70;129849;1260;115865;-60
2024/04/11 04:01:33;;;;;;;16.80;8.50;;;;;;;4.68;79.88;101922.48;129695;1273;114723;-60
2024/04/11 04:04:35;;;;;;;15.10;8.00;;;;;;;4.66;80.25;101930.08;129420;1261;114905;-60
2024/04/11 04:07:37;;;;;;;14.90;7.90;;;;;;;4.65;80.24;101935.20;129707;1261;115367;-61
2024/04/11 04:10:40;;;;;;;15.20;8.60;;;;;;;4.63;80.26;101936.46;129710;1262;115400;-61
2024/04/11 04:13:42;;;;;;;15.60;8.30;;;;;;;4.62;80.40;101935.21;129685;1262;114748;-59
2024/04/11 04:16:46;;;;;;;12.30;8.10;;;;;;;4.62;80.49;101940.88;129723;1260;115212;-62
2024/04/11 04:19:47;;;;;;;16.50;9.50;;;;;;;4.63;80.32;101940.52;129796;1260;115174;-60
2024/04/11 04:22:49;;;;;;;12.90;7.80;;;;;;;4.65;80.41;101947.25;129576;1273;114718;-61
2024/04/11 04:26:05;;;;;;;16.50;8.90;;;;;;;4.68;80.39;101947.79;129303;1262;114928;-60
2024/04/11 04:29:07;;;;;;;16.00;10.10;;;;;;;4.72;80.58;101947.08;129631;1261;127868;-60
2024/04/11 04:32:14;;;;;;;13.90;8.90;;;;;;;4.76;80.62;101951.52;129486;1257;114982;-60
2024/04/11 04:35:15;;;;;;;;;;;;;;;4.82;80.66;101952.23;129590;1263;115457;-59
2024/04/11 04:38:17;;;;;;;15.00;8.50;;;;;;;4.89;80.77;101950.81;129883;1260;114768;-60
2024/04/11 04:41:23;;;;;;;12.10;7.90;;;;;;;4.98;81.08;101956.30;129715;1261;114818;-59
2024/04/11 04:44:28;;;;;;;16.30;9.30;;;;;;;5.08;80.96;101960.56;129582;1259;114805;-60
2024/04/11 04:47:34;;;;;;;16.90;9.00;;;;;;;5.19;81.16;101961.63;129471;1260;129510;-59
2024/04/11 04:50:36;;;;;;;16.30;8.90;;;;;;;5.31;81.11;101958.77;129316;1267;114778;-60
2024/04/11 04:53:38;;;;;;;19.80;9.60;;;;;;;5.44;80.98;101956.98;129728;1274;114824;-59
2024/04/11 04:56:41;;;;;;;16.80;9.50;;;;;;;5.58;80.96;101962.11;129704;1263;115265;-59
2024/04/11 04:59:43;;;;;;;18.70;9.30;;;;;;;5.71;80.96;101964.39;129557;1280;114864;-59
2024/04/11 05:02:45;;;;;;;18.10;8.40;;;;;;;5.85;81.15;101961.34;129495;1261;114788;-59
2024/04/11 05:05:48;;;;;;;21.50;10.80;;;;;;;6.00;81.19;101958.81;129482;1258;114762;-59
2024/04/11 05:08:53;;;;;;;17.20;9.90;;;;;;;6.16;81.24;101956.27;129271;1259;127970;-59
2024/04/11 05:11:57;;;;;;;18.80;9.30;;;;;;;6.33;81.22;101952.13;129252;1267;115064;-59
2024/04/11 05:15:00;;;;;;;15.50;8.90;;;;;;;6.52;81.32;101956.63;129368;1259;114832;-59
2024/04/11 05:18:04;;;;;;;18.10;10.50;;;;;;;6.72;81.43;101958.64;129514;1261;114865;-59
2024/04/11 05:21:07;;;;;;;17.40;10.40;;;;;;;6.91;81.43;101965.06;129558;1260;114954;-59
2024/04/11 05:24:10;;;;;;;17.10;9.10;;;;;;;7.09;81.39;101970.62;129517;1259;114793;-60
2024/04/11 05:27:12;;;;;;;16.20;9.30;;;;;;;7.27;81.56;101974.39;129577;1257;115162;-60
2024/04/11 05:30:14;;;;;;;14.30;8.50;;;;;;;7.45;81.48;101977.41;129486;1272;114747;-59
2024/04/11 05:33:16;;;;;;;14.90;8.80;;;;;;;7.60;81.47;101978.68;129663;1258;114800;-60
2024/04/11 05:36:21;;;;;;;15.70;9.50;;;;;;;7.73;81.34;101979.80;129470;1280;114701;-60
2024/04/11 05:39:23;;;;;;;15.40;9.40;;;;;;;7.87;81.32;101978.77;129621;1260;115375;-60
2024/04/11 05:42:25;;;;;;;16.60;9.20;;;;;;;7.99;81.17;101981.48;129411;1272;114980;-59
2024/04/11 05:45:33;;;;;;;15.00;10.10;;;;;;;8.13;80.87;101983.45;129603;1261;114739;-59
2024/04/11 05:48:37;;;;;;;15.80;9.30;;;;;;;8.27;80.57;101982.73;129626;1259;114771;-60
2024/04/11 05:51:38;;;;;;;13.60;9.20;;;;;;;8.37;80.81;101990.63;129611;1261;114883;-59
2024/04/11 05:54:40;;;;;;;16.60;9.80;;;;;;;8.50;80.31;101991.35;129764;1280;115209;-60
2024/04/11 05:57:43;;;;;;;13.10;9.10;;;;;;;8.65;80.65;101993.31;129681;1261;114824;-59
2024/04/11 06:00:49;;;;;;;14.60;9.50;;;;;;;8.81;80.45;102000.73;129572;1262;114925;-59
2024/04/11 06:03:51;;;;;;;15.90;8.70;;;;;;;8.96;80.15;101999.61;129406;1265;128197;-59
2024/04/11 06:06:53;;;;;;;14.50;9.20;;;;;;;9.10;80.04;101996.71;129637;1259;114771;-59
2024/04/11 06:09:58;;;;;;;14.70;8.80;;;;;;;9.29;79.85;102000.52;129700;1260;114822;-59
2024/04/11 06:13:01;;;;;;;14.70;9.40;;;;;;;9.51;79.78;102004.44;129639;1257;114804;-59
2024/04/11 06:16:04;;;;;;;11.50;8.10;;;;;;;9.78;79.74;102005.91;129426;1261;115638;-59
2024/04/11 06:19:06;;;;;;;13.30;8.00;;;;;;;10.10;79.44;102003.50;129486;1261;114854;-60
2024/04/11 06:22:08;;;;;;;12.00;8.00;;;;;;;10.44;79.31;102002.80;129594;1261;115010;-59
2024/04/11 06:25:11;;;;;;;11.50;7.20;;;;;;;10.79;78.57;102002.76;129548;1257;115177;-59
2024/04/11 06:28:15;;;;;;;14.00;7.80;;;;;;;11.23;78.48;102002.44;129471;1260;114856;-59
2024/04/11 06:31:17;;;;;;;11.70;8.50;;;;;;;11.68;77.62;101996.29;129715;1260;114784;-59
2024/04/11 06:34:20;;;;;;;10.20;7.50;;;;;;;12.11;77.04;101999.05;129667;1260;114897;-59
2024/04/11 06:37:24;;;;;;;9.80;7.20;;;;;;;12.55;76.69;101999.58;129685;1261;115489;-59
2024/04/11 06:40:28;;;;;;;11.10;7.80;;;;;;;12.93;75.84;102003.75;129682;1263;114846;-60
2024/04/11 06:43:31;;;;;;;11.60;7.50;;;;;;;13.28;74.82;102004.59;129666;1261;115184;-61
2024/04/11 06:46:33;;;;;;;12.40;7.40;;;;;;;13.61;74.31;102001.35;129530;1260;114749;-59
2024/04/11 06:49:36;;;;;;;12.00;7.10;;;;;;;13.94;73.89;101995.35;129589;1258;114823;-59
2024/04/11 06:52:42;;;;;;;13.40;7.20;;;;;;;14.27;73.36;101992.70;129436;1260;114791;-59
2024/04/11 06:55:46;;;;;;;9.50;6.30;;;;;;;14.54;72.83;101995.79;129811;1259;114804;-60
2024/04/11 06:58:48;;;;;;;11.90;6.80;;;;;;;14.76;71.90;101994.80;129628;1261;128793;-59
2024/04/11 07:01:51;;;;;;;9.20;6.00;;;;;;;15.02;71.64;101993.56;129700;1258;114800;-59
2024/04/11 07:04:54;;;;;;;9.20;5.30;;;;;;;15.28;71.06;101990.16;129539;1260;114757;-59
2024/04/11 07:07:59;;;;;;;7.80;4.90;;;;;;;15.56;70.15;101981.77;129476;1260;115468;-58
2024/04/11 07:14:23;;;;;;;10.20;5.70;;;;;;;16.04;69.16;101976.59;129442;1272;128293;-59
2024/04/11 07:17:27;;;;;;;8.70;5.40;;;;;;;16.26;68.05;101983.73;129537;1260;115185;-59
2024/04/11 07:20:35;;;;;;;11.00;4.30;;;;;;;16.45;67.70;101988.40;129487;1280;115248;-59
2024/04/11 07:23:42;;;;;;;7.00;3.90;;;;;;;16.77;67.32;101981.49;129217;1267;114755;-60
2024/04/11 07:26:44;;;;;;;6.50;4.40;;;;;;;17.04;66.23;101977.65;129332;1258;114938;-59
2024/04/11 07:29:46;;;;;;;6.30;3.90;;;;;;;17.37;66.00;101978.17;129495;1262;114813;-60
2024/04/11 07:32:49;;;;;;;7.50;4.30;;;;;;;17.68;64.94;101977.85;129555;1271;114843;-60
2024/04/11 07:35:51;;;;;;;8.20;4.50;;;;;;;17.96;64.27;101978.02;129415;1264;114779;-60
2024/04/11 07:38:54;;;;;;;6.40;3.70;;;;;;;18.20;63.34;101976.55;129552;1280;114924;-60
2024/04/11 07:42:18;;;;;;;5.90;3.60;;;;;;;18.52;62.38;101973.33;129567;1260;114826;-60
2024/04/11 07:45:30;;;;;;;8.10;3.90;;;;;;;18.81;61.95;101973.87;129226;1265;114803;-61
2024/04/11 07:48:35;;;;;;;;;;;;;;;19.11;61.19;101975.08;129264;1258;128419;-61
2024/04/11 07:51:37;;;;;;;4.80;2.70;;;;;;;19.40;60.04;101975.02;129382;1277;114853;-59
2024/04/11 07:54:42;;;;;;;5.40;2.90;;;;;;;19.60;59.30;101970.16;129406;1261;115209;-60
2024/04/11 07:57:45;;;;;;;7.00;3.30;;;;;;;20.00;59.35;101972.28;129208;1257;114907;-59
2024/04/11 08:00:47;;;;;;;6.00;1.80;;;;;;;20.38;58.04;101975.35;129534;1260;115889;-61
2024/04/11 08:03:50;;;;;;;3.50;2.10;;;;;;;20.72;56.91;101979.13;129454;1262;114735;-61
2024/04/11 08:06:54;;;;;;;3.80;1.80;;;;;;;21.07;55.93;101976.89;129496;1262;114814;-60
2024/04/11 08:09:58;;;;;;;5.30;2.10;;;;;;;21.28;54.80;101977.27;129585;1257;115266;-60
2024/04/11 08:13:00;;;;;;;3.20;1.90;;;;;;;21.44;53.79;101969.83;129613;1261;115182;-60
2024/04/11 08:16:04;;;;;;;4.80;2.00;;;;;;;21.62;52.90;101969.65;129537;1262;114828;-60
2024/04/11 08:19:09;;;;;;;5.20;2.20;;;;;;;21.71;52.22;101968.30;129432;1273;114814;-60
2024/04/11 08:22:11;;;;;;;3.90;1.70;;;;;;;21.87;51.31;101969.05;129374;1266;115840;-60
2024/04/11 08:25:13;;;;;;;3.60;1.70;;;;;;;22.05;50.35;101960.27;129617;1260;115502;-60
2024/04/11 08:28:15;;;;;;;3.60;1.60;;;;;;;22.08;49.67;101958.61;129645;1259;114918;-59
2024/04/11 08:31:17;;;;;;;3.70;1.80;;;;;;;22.25;48.71;101951.20;129566;1258;114747;-59
2024/04/11 08:34:21;;;;;;;2.50;1.50;;;;;;;22.45;48.21;101954.52;129448;1261;114715;-59
2024/04/11 08:37:22;;;;;;;3.60;1.80;;;;;;;22.65;48.11;101953.80;129495;1258;114822;-59
2024/04/11 08:40:24;;;;;;;4.40;2.00;;;;;;;22.61;47.95;101956.85;129501;1261;114876;-58
2024/04/11 08:43:30;;;;;;;4.50;1.90;;;;;;;22.49;46.97;101959.48;129471;1258;114756;-59
2024/04/11 08:46:32;;;;;;;3.30;1.90;;;;;;;22.33;46.75;101962.86;129456;1275;114897;-61
2024/04/11 08:49:34;;;;;;;5.00;2.00;;;;;;;22.24;46.17;101961.32;129622;1261;114725;-60
2024/04/11 08:52:36;;;;;;;5.00;2.10;;;;;;;21.96;46.20;101963.15;129649;1275;114830;-60
2024/04/11 08:55:40;;;;;;;4.00;2.10;;;;;;;21.73;45.85;101965.31;129454;1271;114852;-61
2024/04/11 08:58:44;;;;;;;6.70;1.80;;;;;;;21.33;44.94;101961.65;129216;1257;127571;-61
2024/04/11 09:01:46;;;;;;;5.90;1.80;;;;;;;20.94;44.74;101963.15;129481;1262;114811;-60
2024/04/11 09:04:48;;;;;;;3.60;1.70;;;;;;;20.66;44.65;101964.10;129474;1258;115409;-60
2024/04/11 09:07:51;;;;;;;4.60;1.50;;;;;;;20.44;44.68;101969.16;129547;1281;114863;-60
2024/04/11 09:10:54;;;;;;;4.90;1.90;;;;;;;20.38;44.51;101966.60;129535;1257;114865;-60
2024/04/11 09:13:58;;;;;;;4.30;2.00;;;;;;;20.32;44.39;101966.65;129506;1261;114743;-60
2024/04/11 09:17:04;;;;;;;2.80;1.20;;;;;;;20.15;44.28;101960.98;129201;1281;128610;-60
2024/04/11 09:20:12;;;;;;;2.30;1.20;;;;;;;19.98;44.35;101964.23;129422;1264;114746;-61
2024/04/11 09:23:19;;;;;;;3.80;0.80;;;;;;;19.90;44.47;101963.98;129517;1259;114742;-60
2024/04/11 09:26:22;;;;;;;2.30;0.90;;;;;;;19.93;44.74;101964.02;129300;1266;116533;-60
2024/04/11 09:29:24;;;;;;;2.30;0.80;;;;;;;20.08;44.82;101964.17;129494;1258;114740;-60
2024/04/11 09:32:28;;;;;;;2.20;0.90;;;;;;;20.32;44.62;101961.59;129437;1258;114768;-60
2024/04/11 09:35:41;;;;;;;5.40;0.90;;;;;;;20.46;43.99;101959.91;129441;1259;114743;-60
2024/04/11 09:38:46;;;;;;;4.20;1.20;;;;;;;20.44;43.92;101957.49;129492;1262;114802;-60
2024/04/11 09:41:51;;;;;;;2.80;0.90;;;;;;;20.56;43.03;101958.58;129464;1258;114746;-60
2024/04/11 09:44:53;;;;;;;3.00;0.90;;;;;;;20.55;43.15;101957.34;129456;1257;114907;-59
2024/04/11 09:47:56;;;;;;;4.70;0.90;;;;;;;20.51;43.24;101957.09;129566;1257;114822;-60
2024/04/11 09:50:59;;;;;;;3.10;0.80;;;;;;;20.45;43.09;101953.84;129464;1258;114781;-60
2024/04/11 09:54:03;;;;;;;1.80;1.00;;;;;;;20.25;42.56;101949.29;129550;1261;114765;-60
2024/04/11 09:57:06;;;;;;;2.60;0.80;;;;;;;20.17;42.79;101946.54;129664;1260;115106;-59
2024/04/11 10:00:09;;;;;;;2.40;0.70;;;;;;;20.14;42.34;101944.52;129706;1260;114745;-59
2024/04/11 10:03:12;;;;;;;1.70;0.80;;;;;;;20.13;42.58;101942.99;129508;1261;114833;-59
2024/04/11 10:06:24;;;;;;;2.80;0.90;;;;;;;20.16;42.60;101945.15;129578;1257;115182;-59
2024/04/11 10:09:29;;;;;;;1.70;0.60;;;;;;;20.23;42.74;101948.33;129462;1259;115173;-60
2024/04/11 10:12:40;;;;;;;;;;;;;;;20.38;42.80;101949.55;129602;1274;114736;-59
2024/04/11 10:15:46;;;;;;;2.20;0.80;;;;;;;20.33;42.30;101943.14;129483;1261;114786;-58
2024/04/11 10:19:12;;;;;;;1.80;0.60;;;;;;;20.26;42.34;101943.78;129551;1262;128850;-60
2024/04/11 10:22:24;;;;;;;3.70;1.30;;;;;;;20.31;42.43;101944.55;129359;1266;115375;-60
2024/04/11 10:25:29;;;;;;;2.50;0.80;;;;;;;20.29;41.99;101938.52;129385;1259;114890;-60
2024/04/11 10:28:56;;;;;;;4.20;0.80;;;;;;;20.24;42.33;101936.32;129312;1259;114804;-59
2024/04/11 10:31:58;;;;;;;3.80;1.60;;;;;;;20.28;42.40;101934.60;129300;1265;114826;-59
2024/04/11 10:35:02;;;;;;;3.10;1.10;;;;;;;20.29;42.22;101934.17;129496;1261;128862;-59
2024/04/11 10:38:12;;;;;;;3.40;1.20;;;;;;;20.29;41.73;101934.52;129387;1264;114827;-60
2024/04/11 10:41:19;;;;;;;3.40;1.00;;;;;;;20.10;41.27;101927.77;129503;1280;114800;-59
2024/04/11 10:44:23;;;;;;;3.60;1.10;;;;;;;20.00;41.90;101926.20;129415;1260;115029;-61
2024/04/11 10:47:26;;;;;;;3.00;1.00;;;;;;;20.07;42.14;101919.23;129545;1261;114816;-60
2024/04/11 10:50:28;;;;;;;2.20;0.70;;;;;;;20.12;41.86;101918.95;129561;1260;114744;-59
2024/04/11 10:53:33;;;;;;;2.60;1.10;;;;;;;20.00;41.50;101914.23;129518;1260;114758;-59
2024/04/11 10:56:43;;;;;;;3.50;1.00;;;;;;;19.87;41.56;101909.98;129766;1258;115348;-61
2024/04/11 10:59:51;;;;;;;2.80;1.00;;;;;;;19.82;41.66;101907.03;129601;1280;115365;-61
2024/04/11 11:03:11;;;;;;;4.30;1.20;;;;;;;19.80;41.74;101908.19;129201;1259;114962;-59
2024/04/11 11:06:15;;;;;;;4.10;0.90;;;;;;;19.67;41.32;101909.73;129402;1280;128817;-60
2024/04/11 11:09:18;;;;;;;3.40;1.10;;;;;;;19.52;41.36;101905.40;129659;1261;114781;-59
2024/04/11 11:12:23;;;;;;;1.90;1.00;;;;;;;19.37;41.34;101899.83;129774;1260;114792;-59
2024/04/11 11:15:26;;;;;;;2.20;0.80;;;;;;;19.31;41.58;101900.17;129544;1260;114881;-59
2024/04/11 11:18:28;;;;;;;3.50;1.00;;;;;;;19.26;41.60;101901.22;129443;1280;114800;-59
2024/04/11 11:21:34;;;;;;;3.40;1.10;;;;;;;19.19;41.54;101904.13;129466;1261;115121;-61
2024/04/11 11:24:37;;;;;;;2.10;0.90;;;;;;;19.09;41.24;101900.53;129437;1264;114787;-61
2024/04/11 11:27:39;;;;;;;1.80;0.60;;;;;;;19.03;41.28;101895.68;129580;1261;114744;-62
2024/04/11 11:30:48;;;;;;;3.70;0.70;;;;;;;19.01;41.56;101891.48;129485;1261;114758;-60
2024/04/11 11:33:50;;;;;;;1.80;0.70;;;;;;;19.02;41.78;101892.50;129322;1257;114844;-62
2024/04/11 11:36:57;;;;;;;3.70;0.50;;;;;;;19.05;41.76;101886.89;129534;1262;114807;-59
2024/04/11 11:43:22;;;;;;;2.30;0.90;;;;;;;19.05;41.45;101884.17;129528;1280;114804;-60
2024/04/11 11:46:31;;;;;;;1.60;0.70;;;;;;;18.99;41.60;101885.08;129741;1261;115248;-62
2024/04/11 11:49:37;;;;;;;1.50;0.30;;;;;;;18.92;41.13;101882.58;129345;1257;116404;-60
2024/04/11 11:52:42;;;;;;;1.90;0.40;;;;;;;18.82;41.29;101881.69;129311;1259;114849;-60
2024/04/11 11:55:44;;;;;;;3.70;0.70;;;;;;;18.78;41.48;101876.69;129547;1280;126663;-60
2024/04/11 11:58:46;;;;;;;2.50;0.70;;;;;;;18.71;41.42;101877.42;129879;1260;114740;-60
2024/04/11 12:01:51;;;;;;;1.70;0.80;;;;;;;18.66;41.53;101875.37;129827;1262;114744;-59
2024/04/11 12:04:53;;;;;;;1.60;0.70;;;;;;;18.58;41.02;101868.41;129764;1261;114746;-60
2024/04/11 12:07:59;;;;;;;1.80;0.60;;;;;;;18.50;41.09;101862.38;129642;1261;114787;-59
2024/04/11 12:14:03;;;;;;;12.50;1.00;;;;;;;18.45;41.76;101858.34;129536;1262;114749;-59
2024/04/11 12:17:05;;;;;;;2.00;0.70;;;;;;;18.45;41.57;101854.86;129909;1263;114744;-59
2024/04/11 12:20:15;;;;;;;3.10;0.80;;;;;;;18.44;41.26;101845.32;129645;1280;114763;-60
2024/04/11 12:23:19;;;;;;;2.40;0.60;;;;;;;18.42;41.56;101847.11;129470;1264;114944;-58
2024/04/11 12:26:21;;;;;;;3.20;1.40;;;;;;;18.39;41.49;101850.31;129329;1266;116541;-60
2024/04/11 12:29:23;;;;;;;3.00;0.90;;;;;;;18.36;41.42;101842.71;129563;1259;115228;-59
2024/04/11 12:32:26;;;;;;;2.90;0.70;;;;;;;18.33;41.23;101844.72;129582;1261;115464;-61
2024/04/11 12:35:29;;;;;;;3.30;1.10;;;;;;;18.27;41.28;101835.30;129688;1261;114742;-62
2024/04/11 12:38:32;;;;;;;1.50;0.40;;;;;;;18.26;41.11;101833.55;129348;1267;114834;-63
2024/04/11 12:41:36;;;;;;;2.80;1.00;;;;;;;18.23;40.70;101829.18;129926;1261;115127;-63
2024/04/11 12:44:37;;;;;;;3.00;0.70;;;;;;;18.20;40.98;101832.97;129619;1261;115125;-62
2024/04/11 12:47:42;;;;;;;2.00;0.80;;;;;;;18.19;41.03;101823.84;129702;1259;114673;-63
2024/04/11 12:50:44;;;;;;;3.80;0.50;;;;;;;18.17;41.04;101824.09;129666;1262;114758;-63
2024/04/11 12:53:47;;;;;;;1.90;0.80;;;;;;;18.16;40.96;101820.17;129561;1261;115280;-62
2024/04/11 12:56:49;;;;;;;2.80;0.70;;;;;;;18.11;40.75;101818.45;129536;1261;115191;-60
2024/04/11 12:59:56;;;;;;;1.90;0.60;;;;;;;18.08;40.92;101815.77;129618;1261;115264;-60
2024/04/11 13:03:06;;;;;;;2.80;0.70;;;;;;;18.06;40.97;101821.98;129279;1262;114888;-60
2024/04/11 13:06:22;;;;;;;3.60;0.80;;;;;;;18.05;40.97;101820.94;129293;1262;114914;-60
2024/04/11 13:09:33;;;;;;;3.60;0.80;;;;;;;18.04;40.86;101824.06;129568;1280;129147;-60
2024/04/11 13:12:36;;;;;;;2.80;0.80;;;;;;;18.02;40.61;101824.21;129590;1264;114702;-60
2024/04/11 13:15:44;;;;;;;6.30;0.70;;;;;;;18.02;40.87;101824.20;129641;1261;114727;-61
2024/04/11 13:18:47;;;;;;;3.80;0.50;;;;;;;18.02;40.87;101815.37;129484;1262;114810;-61
2024/04/11 13:22:05;;;;;;;6.80;0.60;;;;;;;17.99;40.52;101811.91;129643;1259;115701;-60
2024/04/11 13:25:20;;;;;;;2.40;0.80;;;;;;;17.95;40.75;101808.33;129486;1281;128683;-60
2024/04/11 13:28:41;;;;;;;1.70;0.60;;;;;;;17.94;40.75;101800.63;129501;1281;115328;-61
2024/04/11 13:31:51;;;;;;;2.70;0.60;;;;;;;17.91;40.64;101799.45;129634;1263;114737;-61
2024/04/11 13:35:06;;;;;;;1.50;0.50;;;;;;;17.90;40.76;101798.45;129266;1261;114823;-64
2024/04/11 13:38:12;;;;;;;2.60;0.70;;;;;;;17.93;40.76;101793.05;129406;1262;114955;-64
2024/04/11 13:44:38;;;;;;;3.90;0.70;;;;;;;17.97;40.76;101787.25;129661;1277;114685;-65
2024/04/11 13:47:43;;;;;;;2.20;0.60;;;;;;;17.99;40.62;101787.31;129542;1264;114798;-67
2024/04/11 13:50:52;;;;;;;1.50;0.60;;;;;;;17.99;40.62;101782.98;129429;1259;114855;-65
2024/04/11 13:53:57;;;;;;;2.60;0.90;;;;;;;18.01;40.37;101780.73;129746;1271;114719;-64
2024/04/11 13:57:09;;;;;;;1.80;0.60;;;;;;;17.99;40.31;101778.98;129788;1281;128925;-69
2024/04/11 14:00:13;;;;;;;3.80;0.90;;;;;;;17.99;40.53;101781.19;129630;1281;114846;-66
2024/04/11 14:03:24;;;;;;;2.50;1.10;;;;;;;17.99;40.48;101776.10;129552;1273;114733;-65
2024/04/11 14:06:39;;;;;;;1.50;0.70;;;;;;;17.99;40.39;101772.51;129579;1264;116568;-65
2024/04/11 14:09:41;;;;;;;2.20;0.70;;;;;;;17.97;40.36;101772.98;128901;1275;434760;-65